sensor_id;sensor_type;location;lat;lon;timestamp;temperature;humidity
33007;DHT22;19361;51.598;7.650;2024-02-23T00:00:42;11.30;56.70
33007;DHT22;19361;51.598;7.650;2024-02-23T00:05:43;11.10;56.70
33007;DHT22;19361;51.598;7.650;2024-02-23T00:10:44;11.00;57.10
33007;DHT22;19361;51.598;7.650;2024-02-23T00:15:44;11.00;58.10
33007;DHT22;19361;51.598;7.650;2024-02-23T00:20:46;10.90;59.20
33007;DHT22;19361;51.598;7.650;2024-02-23T00:25:47;10.70;60.10
33007;DHT22;19361;51.598;7.650;2024-02-23T00:30:48;10.60;60.20
33007;DHT22;19361;51.598;7.650;2024-02-23T00:35:48;10.50;61.00
33007;DHT22;19361;51.598;7.650;2024-02-23T00:40:49;10.40;61.30
33007;DHT22;19361;51.598;7.650;2024-02-23T00:45:50;10.30;60.90
33007;DHT22;19361;51.598;7.650;2024-02-23T00:50:50;10.10;60.80
33007;DHT22;19361;51.598;7.650;2024-02-23T00:55:51;10.00;60.90
33007;DHT22;19361;51.598;7.650;2024-02-23T01:00:52;10.00;61.10
33007;DHT22;19361;51.598;7.650;2024-02-23T01:05:53;9.90;61.10
33007;DHT22;19361;51.598;7.650;2024-02-23T01:10:53;9.90;61.10
33007;DHT22;19361;51.598;7.650;2024-02-23T01:15:54;9.80;61.00
33007;DHT22;19361;51.598;7.650;2024-02-23T01:20:56;9.90;61.10
33007;DHT22;19361;51.598;7.650;2024-02-23T01:25:57;9.80;61.20
33007;DHT22;19361;51.598;7.650;2024-02-23T01:30:59;9.80;60.90
33007;DHT22;19361;51.598;7.650;2024-02-23T01:36:01;9.80;59.90
33007;DHT22;19361;51.598;7.650;2024-02-23T01:41:01;9.80;59.70
33007;DHT22;19361;51.598;7.650;2024-02-23T01:46:03;9.70;59.80
33007;DHT22;19361;51.598;7.650;2024-02-23T01:51:05;9.70;59.70
33007;DHT22;19361;51.598;7.650;2024-02-23T01:56:06;9.60;59.50
33007;DHT22;19361;51.598;7.650;2024-02-23T02:01:07;9.60;59.80
33007;DHT22;19361;51.598;7.650;2024-02-23T02:06:09;9.50;59.80
33007;DHT22;19361;51.598;7.650;2024-02-23T02:11:10;9.50;59.70
33007;DHT22;19361;51.598;7.650;2024-02-23T02:16:11;9.50;60.00
33007;DHT22;19361;51.598;7.650;2024-02-23T02:21:12;9.50;60.00
33007;DHT22;19361;51.598;7.650;2024-02-23T02:26:13;9.60;60.30
33007;DHT22;19361;51.598;7.650;2024-02-23T02:31:13;9.60;60.10
33007;DHT22;19361;51.598;7.650;2024-02-23T02:36:14;9.60;60.10
33007;DHT22;19361;51.598;7.650;2024-02-23T02:41:16;9.70;60.00
33007;DHT22;19361;51.598;7.650;2024-02-23T02:46:17;9.70;59.90
33007;DHT22;19361;51.598;7.650;2024-02-23T02:51:18;9.70;59.60
33007;DHT22;19361;51.598;7.650;2024-02-23T02:56:19;9.70;59.40
33007;DHT22;19361;51.598;7.650;2024-02-23T03:01:19;9.70;58.50
33007;DHT22;19361;51.598;7.650;2024-02-23T03:06:20;9.60;58.60
33007;DHT22;19361;51.598;7.650;2024-02-23T03:11:21;9.60;58.60
33007;DHT22;19361;51.598;7.650;2024-02-23T03:16:21;9.60;58.50
33007;DHT22;19361;51.598;7.650;2024-02-23T03:21:26;9.60;58.30
33007;DHT22;19361;51.598;7.650;2024-02-23T03:26:27;9.60;58.70
33007;DHT22;19361;51.598;7.650;2024-02-23T03:31:27;9.60;58.50
33007;DHT22;19361;51.598;7.650;2024-02-23T03:36:28;9.60;58.50
33007;DHT22;19361;51.598;7.650;2024-02-23T03:41:29;9.60;58.40
33007;DHT22;19361;51.598;7.650;2024-02-23T03:46:29;9.60;58.10
33007;DHT22;19361;51.598;7.650;2024-02-23T03:51:30;9.50;58.10
33007;DHT22;19361;51.598;7.650;2024-02-23T03:56:40;9.50;58.20
33007;DHT22;19361;51.598;7.650;2024-02-23T04:01:41;9.40;58.30
33007;DHT22;19361;51.598;7.650;2024-02-23T04:06:42;9.30;58.40
33007;DHT22;19361;51.598;7.650;2024-02-23T04:11:43;9.30;58.50
33007;DHT22;19361;51.598;7.650;2024-02-23T04:16:43;9.20;58.70
33007;DHT22;19361;51.598;7.650;2024-02-23T04:21:44;9.20;59.00
33007;DHT22;19361;51.598;7.650;2024-02-23T04:26:45;9.20;59.20
33007;DHT22;19361;51.598;7.650;2024-02-23T04:31:45;9.20;59.20
33007;DHT22;19361;51.598;7.650;2024-02-23T04:36:46;9.20;59.10
33007;DHT22;19361;51.598;7.650;2024-02-23T04:41:47;9.20;58.80
33007;DHT22;19361;51.598;7.650;2024-02-23T04:46:48;9.30;59.00
33007;DHT22;19361;51.598;7.650;2024-02-23T04:51:49;9.30;58.70
33007;DHT22;19361;51.598;7.650;2024-02-23T04:56:49;9.30;58.50
33007;DHT22;19361;51.598;7.650;2024-02-23T05:01:50;9.30;58.50
33007;DHT22;19361;51.598;7.650;2024-02-23T05:06:51;9.30;58.00
33007;DHT22;19361;51.598;7.650;2024-02-23T05:11:52;9.30;57.90
33007;DHT22;19361;51.598;7.650;2024-02-23T05:16:52;9.20;57.50
33007;DHT22;19361;51.598;7.650;2024-02-23T05:21:53;9.20;58.50
33007;DHT22;19361;51.598;7.650;2024-02-23T05:26:54;9.20;58.10
33007;DHT22;19361;51.598;7.650;2024-02-23T05:31:54;9.20;58.20
33007;DHT22;19361;51.598;7.650;2024-02-23T05:36:55;9.30;58.10
33007;DHT22;19361;51.598;7.650;2024-02-23T05:41:56;9.30;57.90
33007;DHT22;19361;51.598;7.650;2024-02-23T05:46:57;9.30;57.80
33007;DHT22;19361;51.598;7.650;2024-02-23T05:51:58;9.30;57.70
33007;DHT22;19361;51.598;7.650;2024-02-23T05:56:58;9.20;57.50
33007;DHT22;19361;51.598;7.650;2024-02-23T06:01:59;9.20;57.50
33007;DHT22;19361;51.598;7.650;2024-02-23T06:07:00;9.10;57.50
33007;DHT22;19361;51.598;7.650;2024-02-23T06:12:00;9.10;57.80
33007;DHT22;19361;51.598;7.650;2024-02-23T06:17:01;9.20;57.90
33007;DHT22;19361;51.598;7.650;2024-02-23T06:22:03;9.10;57.60
33007;DHT22;19361;51.598;7.650;2024-02-23T06:27:04;9.10;57.40
33007;DHT22;19361;51.598;7.650;2024-02-23T06:32:05;9.10;57.50
33007;DHT22;19361;51.598;7.650;2024-02-23T06:37:06;9.00;57.30
33007;DHT22;19361;51.598;7.650;2024-02-23T06:42:06;9.00;57.40
33007;DHT22;19361;51.598;7.650;2024-02-23T06:47:07;8.90;57.60
33007;DHT22;19361;51.598;7.650;2024-02-23T06:52:08;8.90;57.70
33007;DHT22;19361;51.598;7.650;2024-02-23T06:57:10;8.80;57.80
33007;DHT22;19361;51.598;7.650;2024-02-23T07:02:10;8.80;57.80
33007;DHT22;19361;51.598;7.650;2024-02-23T07:07:11;8.80;58.00
33007;DHT22;19361;51.598;7.650;2024-02-23T07:12:12;8.80;58.40
33007;DHT22;19361;51.598;7.650;2024-02-23T07:17:17;8.90;58.40
33007;DHT22;19361;51.598;7.650;2024-02-23T07:22:17;9.00;58.40
33007;DHT22;19361;51.598;7.650;2024-02-23T07:27:19;9.00;58.70
33007;DHT22;19361;51.598;7.650;2024-02-23T07:32:19;9.10;58.60
33007;DHT22;19361;51.598;7.650;2024-02-23T07:37:20;9.20;58.50
33007;DHT22;19361;51.598;7.650;2024-02-23T07:42:21;9.20;58.40
33007;DHT22;19361;51.598;7.650;2024-02-23T07:47:22;9.30;58.60
33007;DHT22;19361;51.598;7.650;2024-02-23T07:52:22;9.20;58.40
33007;DHT22;19361;51.598;7.650;2024-02-23T07:57:24;9.30;58.40
33007;DHT22;19361;51.598;7.650;2024-02-23T08:02:25;9.30;58.20
33007;DHT22;19361;51.598;7.650;2024-02-23T08:07:25;9.40;58.40
33007;DHT22;19361;51.598;7.650;2024-02-23T08:12:28;9.40;58.30
33007;DHT22;19361;51.598;7.650;2024-02-23T08:17:29;9.40;58.40
33007;DHT22;19361;51.598;7.650;2024-02-23T08:22:30;9.50;58.30
33007;DHT22;19361;51.598;7.650;2024-02-23T08:27:30;9.60;58.30
33007;DHT22;19361;51.598;7.650;2024-02-23T08:32:31;9.70;58.30
33007;DHT22;19361;51.598;7.650;2024-02-23T08:37:32;9.80;58.10
33007;DHT22;19361;51.598;7.650;2024-02-23T08:42:32;10.00;58.10
33007;DHT22;19361;51.598;7.650;2024-02-23T08:47:33;10.10;57.90
33007;DHT22;19361;51.598;7.650;2024-02-23T08:52:35;10.20;57.40
33007;DHT22;19361;51.598;7.650;2024-02-23T08:57:36;10.30;57.70
33007;DHT22;19361;51.598;7.650;2024-02-23T09:02:37;10.40;57.10
33007;DHT22;19361;51.598;7.650;2024-02-23T09:07:38;10.50;57.10
33007;DHT22;19361;51.598;7.650;2024-02-23T09:12:39;10.50;56.60
33007;DHT22;19361;51.598;7.650;2024-02-23T09:17:40;10.50;56.20
33007;DHT22;19361;51.598;7.650;2024-02-23T09:22:42;10.60;56.40
33007;DHT22;19361;51.598;7.650;2024-02-23T09:27:42;10.60;56.20
33007;DHT22;19361;51.598;7.650;2024-02-23T09:32:43;10.70;56.10
33007;DHT22;19361;51.598;7.650;2024-02-23T09:37:44;10.70;56.10
33007;DHT22;19361;51.598;7.650;2024-02-23T09:42:53;10.80;55.40
33007;DHT22;19361;51.598;7.650;2024-02-23T09:47:57;10.90;54.50
33007;DHT22;19361;51.598;7.650;2024-02-23T09:52:59;10.90;54.70
33007;DHT22;19361;51.598;7.650;2024-02-23T09:58:02;10.90;55.20
33007;DHT22;19361;51.598;7.650;2024-02-23T10:03:04;10.90;55.00
33007;DHT22;19361;51.598;7.650;2024-02-23T10:08:06;10.90;54.60
33007;DHT22;19361;51.598;7.650;2024-02-23T10:13:06;11.00;54.40
33007;DHT22;19361;51.598;7.650;2024-02-23T10:18:08;11.00;54.50
33007;DHT22;19361;51.598;7.650;2024-02-23T10:23:09;11.10;53.90
33007;DHT22;19361;51.598;7.650;2024-02-23T10:28:10;11.10;53.90
33007;DHT22;19361;51.598;7.650;2024-02-23T10:33:12;11.20;54.30
33007;DHT22;19361;51.598;7.650;2024-02-23T10:38:15;11.20;54.10
33007;DHT22;19361;51.598;7.650;2024-02-23T10:43:19;11.30;54.20
33007;DHT22;19361;51.598;7.650;2024-02-23T10:48:21;11.40;53.60
33007;DHT22;19361;51.598;7.650;2024-02-23T10:53:23;11.50;54.00
33007;DHT22;19361;51.598;7.650;2024-02-23T10:58:24;11.60;53.80
33007;DHT22;19361;51.598;7.650;2024-02-23T11:03:25;11.60;53.80
33007;DHT22;19361;51.598;7.650;2024-02-23T11:08:30;11.70;53.70
33007;DHT22;19361;51.598;7.650;2024-02-23T11:13:40;11.80;53.30
33007;DHT22;19361;51.598;7.650;2024-02-23T11:18:40;11.90;53.10
33007;DHT22;19361;51.598;7.650;2024-02-23T11:23:48;12.00;53.50
33007;DHT22;19361;51.598;7.650;2024-02-23T11:28:51;12.10;52.90
33007;DHT22;19361;51.598;7.650;2024-02-23T11:33:56;12.10;53.10
33007;DHT22;19361;51.598;7.650;2024-02-23T11:38:58;12.10;52.30
33007;DHT22;19361;51.598;7.650;2024-02-23T11:43:59;12.20;52.60
33007;DHT22;19361;51.598;7.650;2024-02-23T11:49:00;12.20;53.00
33007;DHT22;19361;51.598;7.650;2024-02-23T11:54:01;12.30;52.70
33007;DHT22;19361;51.598;7.650;2024-02-23T11:59:02;12.30;52.50
33007;DHT22;19361;51.598;7.650;2024-02-23T12:04:03;12.40;53.10
33007;DHT22;19361;51.598;7.650;2024-02-23T12:09:03;12.40;52.10
33007;DHT22;19361;51.598;7.650;2024-02-23T12:14:05;12.40;51.50
33007;DHT22;19361;51.598;7.650;2024-02-23T12:19:09;12.40;52.20
33007;DHT22;19361;51.598;7.650;2024-02-23T12:24:10;12.40;51.90
33007;DHT22;19361;51.598;7.650;2024-02-23T12:29:10;12.30;52.10
33007;DHT22;19361;51.598;7.650;2024-02-23T12:34:11;12.30;52.10
33007;DHT22;19361;51.598;7.650;2024-02-23T12:39:15;12.30;52.60
33007;DHT22;19361;51.598;7.650;2024-02-23T12:44:15;12.30;52.50
33007;DHT22;19361;51.598;7.650;2024-02-23T12:49:16;12.30;52.30
33007;DHT22;19361;51.598;7.650;2024-02-23T12:54:17;12.30;51.40
33007;DHT22;19361;51.598;7.650;2024-02-23T12:59:17;12.20;50.70
33007;DHT22;19361;51.598;7.650;2024-02-23T13:04:18;12.20;50.50
33007;DHT22;19361;51.598;7.650;2024-02-23T13:09:19;12.30;50.40
33007;DHT22;19361;51.598;7.650;2024-02-23T13:14:19;12.30;50.40
33007;DHT22;19361;51.598;7.650;2024-02-23T13:19:20;12.30;50.80
33007;DHT22;19361;51.598;7.650;2024-02-23T13:24:21;12.40;50.60
33007;DHT22;19361;51.598;7.650;2024-02-23T13:29:21;12.40;50.30
33007;DHT22;19361;51.598;7.650;2024-02-23T13:34:22;12.50;49.50
33007;DHT22;19361;51.598;7.650;2024-02-23T13:39:23;12.50;50.00
33007;DHT22;19361;51.598;7.650;2024-02-23T13:44:24;12.60;49.50
33007;DHT22;19361;51.598;7.650;2024-02-23T13:49:25;12.60;49.50
33007;DHT22;19361;51.598;7.650;2024-02-23T13:54:26;12.70;49.80
33007;DHT22;19361;51.598;7.650;2024-02-23T13:59:26;12.70;50.10
33007;DHT22;19361;51.598;7.650;2024-02-23T14:04:27;12.70;50.30
33007;DHT22;19361;51.598;7.650;2024-02-23T14:09:28;12.70;50.10
33007;DHT22;19361;51.598;7.650;2024-02-23T14:14:28;12.60;50.30
33007;DHT22;19361;51.598;7.650;2024-02-23T14:19:29;12.60;50.90
33007;DHT22;19361;51.598;7.650;2024-02-23T14:24:30;12.50;50.50
33007;DHT22;19361;51.598;7.650;2024-02-23T14:29:30;12.50;51.00
33007;DHT22;19361;51.598;7.650;2024-02-23T14:34:31;12.40;51.20
33007;DHT22;19361;51.598;7.650;2024-02-23T14:39:33;12.40;51.60
33007;DHT22;19361;51.598;7.650;2024-02-23T14:44:35;12.40;51.90
33007;DHT22;19361;51.598;7.650;2024-02-23T14:49:36;12.40;51.90
33007;DHT22;19361;51.598;7.650;2024-02-23T14:54:36;12.40;52.10
33007;DHT22;19361;51.598;7.650;2024-02-23T14:59:37;12.40;51.70
33007;DHT22;19361;51.598;7.650;2024-02-23T15:04:46;12.30;51.30
33007;DHT22;19361;51.598;7.650;2024-02-23T15:09:47;12.30;50.60
33007;DHT22;19361;51.598;7.650;2024-02-23T15:14:48;12.20;51.00
33007;DHT22;19361;51.598;7.650;2024-02-23T15:19:48;12.20;51.70
33007;DHT22;19361;51.598;7.650;2024-02-23T15:24:49;12.10;51.80
33007;DHT22;19361;51.598;7.650;2024-02-23T15:29:50;12.10;52.30
33007;DHT22;19361;51.598;7.650;2024-02-23T15:34:50;12.10;52.50
33007;DHT22;19361;51.598;7.650;2024-02-23T15:39:51;12.10;52.50
33007;DHT22;19361;51.598;7.650;2024-02-23T15:44:52;12.00;52.40
33007;DHT22;19361;51.598;7.650;2024-02-23T15:49:54;12.00;52.60
33007;DHT22;19361;51.598;7.650;2024-02-23T15:54:55;12.00;52.80
33007;DHT22;19361;51.598;7.650;2024-02-23T15:59:56;12.00;52.90
33007;DHT22;19361;51.598;7.650;2024-02-23T16:04:57;12.00;52.80
33007;DHT22;19361;51.598;7.650;2024-02-23T16:09:58;12.00;52.80
33007;DHT22;19361;51.598;7.650;2024-02-23T16:14:59;12.00;52.90
33007;DHT22;19361;51.598;7.650;2024-02-23T16:19:59;12.00;52.90
33007;DHT22;19361;51.598;7.650;2024-02-23T16:25:00;12.00;53.10
33007;DHT22;19361;51.598;7.650;2024-02-23T16:30:02;12.00;53.00
33007;DHT22;19361;51.598;7.650;2024-02-23T16:35:03;11.90;52.70
33007;DHT22;19361;51.598;7.650;2024-02-23T16:40:05;11.90;52.80
33007;DHT22;19361;51.598;7.650;2024-02-23T16:45:08;11.90;52.70
33007;DHT22;19361;51.598;7.650;2024-02-23T16:50:09;11.90;52.80
33007;DHT22;19361;51.598;7.650;2024-02-23T16:55:10;11.80;52.80
33007;DHT22;19361;51.598;7.650;2024-02-23T17:00:11;11.80;53.10
33007;DHT22;19361;51.598;7.650;2024-02-23T17:05:12;11.70;53.10
33007;DHT22;19361;51.598;7.650;2024-02-23T17:10:13;11.70;53.10
33007;DHT22;19361;51.598;7.650;2024-02-23T17:15:15;11.70;53.10
33007;DHT22;19361;51.598;7.650;2024-02-23T17:20:16;11.70;53.30
33007;DHT22;19361;51.598;7.650;2024-02-23T17:25:18;11.60;53.40
33007;DHT22;19361;51.598;7.650;2024-02-23T17:30:18;11.60;53.50
33007;DHT22;19361;51.598;7.650;2024-02-23T17:35:19;11.50;53.60
33007;DHT22;19361;51.598;7.650;2024-02-23T17:40:20;11.50;53.80
33007;DHT22;19361;51.598;7.650;2024-02-23T17:45:21;11.40;53.70
33007;DHT22;19361;51.598;7.650;2024-02-23T17:50:22;11.30;53.80
33007;DHT22;19361;51.598;7.650;2024-02-23T17:55:22;11.20;53.90
33007;DHT22;19361;51.598;7.650;2024-02-23T18:00:23;11.20;54.10
33007;DHT22;19361;51.598;7.650;2024-02-23T18:05:23;11.10;54.40
33007;DHT22;19361;51.598;7.650;2024-02-23T18:10:24;11.10;54.70
33007;DHT22;19361;51.598;7.650;2024-02-23T18:15:25;11.00;54.70
33007;DHT22;19361;51.598;7.650;2024-02-23T18:20:26;11.00;54.90
33007;DHT22;19361;51.598;7.650;2024-02-23T18:25:26;11.00;55.00
33007;DHT22;19361;51.598;7.650;2024-02-23T18:30:27;11.00;55.10
33007;DHT22;19361;51.598;7.650;2024-02-23T18:35:28;11.00;55.00
33007;DHT22;19361;51.598;7.650;2024-02-23T18:40:30;11.00;55.00
33007;DHT22;19361;51.598;7.650;2024-02-23T18:45:30;11.00;54.90
33007;DHT22;19361;51.598;7.650;2024-02-23T18:50:32;11.00;54.70
33007;DHT22;19361;51.598;7.650;2024-02-23T18:55:33;11.00;54.80
33007;DHT22;19361;51.598;7.650;2024-02-23T19:00:37;11.00;54.90
33007;DHT22;19361;51.598;7.650;2024-02-23T19:05:39;10.90;55.00
33007;DHT22;19361;51.598;7.650;2024-02-23T19:10:42;10.90;54.90
33007;DHT22;19361;51.598;7.650;2024-02-23T19:15:43;10.90;55.00
33007;DHT22;19361;51.598;7.650;2024-02-23T19:20:45;10.90;55.00
33007;DHT22;19361;51.598;7.650;2024-02-23T19:25:45;10.80;54.90
33007;DHT22;19361;51.598;7.650;2024-02-23T19:30:46;10.80;55.00
33007;DHT22;19361;51.598;7.650;2024-02-23T19:35:47;10.70;54.90
33007;DHT22;19361;51.598;7.650;2024-02-23T19:40:48;10.70;55.10
33007;DHT22;19361;51.598;7.650;2024-02-23T19:45:48;10.60;55.20
33007;DHT22;19361;51.598;7.650;2024-02-23T19:50:50;10.50;55.40
33007;DHT22;19361;51.598;7.650;2024-02-23T19:55:50;10.50;55.60
33007;DHT22;19361;51.598;7.650;2024-02-23T20:00:51;10.40;55.80
33007;DHT22;19361;51.598;7.650;2024-02-23T20:05:52;10.30;55.70
33007;DHT22;19361;51.598;7.650;2024-02-23T20:10:53;10.30;55.90
33007;DHT22;19361;51.598;7.650;2024-02-23T20:15:54;10.20;56.00
33007;DHT22;19361;51.598;7.650;2024-02-23T20:20:55;10.20;56.20
33007;DHT22;19361;51.598;7.650;2024-02-23T20:25:55;10.10;56.30
33007;DHT22;19361;51.598;7.650;2024-02-23T20:30:56;10.10;56.50
33007;DHT22;19361;51.598;7.650;2024-02-23T20:35:59;10.00;56.40
33007;DHT22;19361;51.598;7.650;2024-02-23T20:40:59;10.00;56.60
33007;DHT22;19361;51.598;7.650;2024-02-23T20:46:00;10.00;56.60
33007;DHT22;19361;51.598;7.650;2024-02-23T20:51:01;9.90;56.60
33007;DHT22;19361;51.598;7.650;2024-02-23T20:56:05;9.90;56.70
33007;DHT22;19361;51.598;7.650;2024-02-23T21:01:06;9.80;57.50
33007;DHT22;19361;51.598;7.650;2024-02-23T21:06:07;9.90;57.20
33007;DHT22;19361;51.598;7.650;2024-02-23T21:11:08;9.80;57.40
33007;DHT22;19361;51.598;7.650;2024-02-23T21:16:08;9.80;57.60
33007;DHT22;19361;51.598;7.650;2024-02-23T21:21:09;9.80;57.70
33007;DHT22;19361;51.598;7.650;2024-02-23T21:26:10;9.80;57.70
33007;DHT22;19361;51.598;7.650;2024-02-23T21:31:13;9.80;57.90
33007;DHT22;19361;51.598;7.650;2024-02-23T21:36:14;9.80;57.90
33007;DHT22;19361;51.598;7.650;2024-02-23T21:41:14;9.80;58.00
33007;DHT22;19361;51.598;7.650;2024-02-23T21:46:17;9.70;58.00
33007;DHT22;19361;51.598;7.650;2024-02-23T21:51:18;9.70;58.20
33007;DHT22;19361;51.598;7.650;2024-02-23T21:56:18;9.60;58.20
33007;DHT22;19361;51.598;7.650;2024-02-23T22:01:19;9.60;58.20
33007;DHT22;19361;51.598;7.650;2024-02-23T22:06:20;9.50;58.20
33007;DHT22;19361;51.598;7.650;2024-02-23T22:11:21;9.50;58.20
33007;DHT22;19361;51.598;7.650;2024-02-23T22:16:21;9.40;58.40
33007;DHT22;19361;51.598;7.650;2024-02-23T22:21:23;9.40;58.80
33007;DHT22;19361;51.598;7.650;2024-02-23T22:26:23;9.30;59.00
33007;DHT22;19361;51.598;7.650;2024-02-23T22:31:24;9.30;59.20
33007;DHT22;19361;51.598;7.650;2024-02-23T22:36:25;9.40;59.70
33007;DHT22;19361;51.598;7.650;2024-02-23T22:41:25;9.40;59.40
33007;DHT22;19361;51.598;7.650;2024-02-23T22:46:26;9.40;59.40
33007;DHT22;19361;51.598;7.650;2024-02-23T22:51:27;9.40;59.30
33007;DHT22;19361;51.598;7.650;2024-02-23T22:56:28;9.40;59.80
33007;DHT22;19361;51.598;7.650;2024-02-23T23:01:28;9.40;59.20
33007;DHT22;19361;51.598;7.650;2024-02-23T23:06:30;9.30;59.10
33007;DHT22;19361;51.598;7.650;2024-02-23T23:11:31;9.30;59.10
33007;DHT22;19361;51.598;7.650;2024-02-23T23:16:31;9.30;59.30
33007;DHT22;19361;51.598;7.650;2024-02-23T23:21:32;9.20;59.40
33007;DHT22;19361;51.598;7.650;2024-02-23T23:26:33;9.10;59.50
33007;DHT22;19361;51.598;7.650;2024-02-23T23:31:34;9.10;59.40
33007;DHT22;19361;51.598;7.650;2024-02-23T23:36:34;9.10;59.40
33007;DHT22;19361;51.598;7.650;2024-02-23T23:41:35;9.00;59.50
33007;DHT22;19361;51.598;7.650;2024-02-23T23:46:36;8.90;59.80
33007;DHT22;19361;51.598;7.650;2024-02-23T23:51:36;8.90;60.40
33007;DHT22;19361;51.598;7.650;2024-02-23T23:56:37;8.80;60.70
